Terminal Aerodrome Forecast
Issued by NWS

Home | Current Version | Previous Version | Text Only | Print | Product List | Glossary On
Versions: 1 2 3 4 5 6 7 8 9 10 11 12 13 14 15 16 17 18
000
FTUS43 KUNR 251300 AAB
TAFGCC
TAF AMD
KGCC 251300Z 2513/2612 35006KT P6SM BKN006
      TEMPO 2513/2516 3SM -RA BR BKN004
     FM251600 35009KT 6SM -SHRA OVC012
     FM252000 34009KT 6SM -SHRA BKN025
     FM260100 VRB05KT P6SM BKN035=

USA.gov is the U.S. government's official web portal to all federal, state and local government web resources and services.